sensor_id;sensor_type;location;lat;lon;timestamp;P1;durP1;ratioP1;P2;durP2;ratioP2
56381;SDS011;50261;51.150;4.470;2023-02-01T00:00:54;20.08;;;6.72;;
56381;SDS011;50261;51.150;4.470;2023-02-01T00:03:20;20.92;;;6.10;;
56381;SDS011;50261;51.150;4.470;2023-02-01T00:05:54;31.92;;;7.00;;
56381;SDS011;50261;51.150;4.470;2023-02-01T00:08:20;21.45;;;6.63;;
56381;SDS011;50261;51.150;4.470;2023-02-01T00:10:45;17.90;;;5.53;;
56381;SDS011;50261;51.150;4.470;2023-02-01T00:13:11;24.38;;;6.30;;
56381;SDS011;50261;51.150;4.470;2023-02-01T00:15:37;21.42;;;7.00;;
56381;SDS011;50261;51.150;4.470;2023-02-01T00:18:02;19.65;;;6.15;;
56381;SDS011;50261;51.150;4.470;2023-02-01T00:20:28;22.15;;;6.95;;
56381;SDS011;50261;51.150;4.470;2023-02-01T00:22:54;29.75;;;7.28;;
56381;SDS011;50261;51.150;4.470;2023-02-01T00:25:19;23.13;;;6.60;;
56381;SDS011;50261;51.150;4.470;2023-02-01T00:27:48;23.58;;;6.35;;
56381;SDS011;50261;51.150;4.470;2023-02-01T00:30:14;21.42;;;7.05;;
56381;SDS011;50261;51.150;4.470;2023-02-01T00:32:39;20.88;;;6.22;;
56381;SDS011;50261;51.150;4.470;2023-02-01T00:35:05;17.08;;;6.05;;
56381;SDS011;50261;51.150;4.470;2023-02-01T00:37:33;20.83;;;6.40;;
56381;SDS011;50261;51.150;4.470;2023-02-01T00:39:59;26.23;;;6.63;;
56381;SDS011;50261;51.150;4.470;2023-02-01T00:42:25;17.38;;;7.10;;
56381;SDS011;50261;51.150;4.470;2023-02-01T00:44:50;26.60;;;6.28;;
56381;SDS011;50261;51.150;4.470;2023-02-01T00:47:16;21.67;;;5.95;;
56381;SDS011;50261;51.150;4.470;2023-02-01T00:49:42;21.73;;;6.15;;
56381;SDS011;50261;51.150;4.470;2023-02-01T00:52:08;21.83;;;6.95;;
56381;SDS011;50261;51.150;4.470;2023-02-01T00:54:33;28.75;;;6.85;;
56381;SDS011;50261;51.150;4.470;2023-02-01T00:57:01;26.48;;;7.15;;
56381;SDS011;50261;51.150;4.470;2023-02-01T00:59:26;21.85;;;6.55;;
56381;SDS011;50261;51.150;4.470;2023-02-01T01:01:52;22.00;;;6.43;;
56381;SDS011;50261;51.150;4.470;2023-02-01T01:04:18;26.45;;;6.53;;
56381;SDS011;50261;51.150;4.470;2023-02-01T01:06:43;24.38;;;6.47;;
56381;SDS011;50261;51.150;4.470;2023-02-01T01:09:09;21.38;;;6.28;;
56381;SDS011;50261;51.150;4.470;2023-02-01T01:11:36;22.98;;;5.95;;
56381;SDS011;50261;51.150;4.470;2023-02-01T01:14:04;23.35;;;5.72;;
56381;SDS011;50261;51.150;4.470;2023-02-01T01:16:30;22.08;;;6.30;;
56381;SDS011;50261;51.150;4.470;2023-02-01T01:18:56;25.02;;;7.30;;
56381;SDS011;50261;51.150;4.470;2023-02-01T01:21:22;23.98;;;6.38;;
56381;SDS011;50261;51.150;4.470;2023-02-01T01:23:48;21.33;;;5.78;;
56381;SDS011;50261;51.150;4.470;2023-02-01T01:26:15;18.10;;;5.90;;
56381;SDS011;50261;51.150;4.470;2023-02-01T01:28:42;28.35;;;6.50;;
56381;SDS011;50261;51.150;4.470;2023-02-01T01:31:08;24.48;;;5.80;;
56381;SDS011;50261;51.150;4.470;2023-02-01T01:33:34;22.48;;;5.60;;
56381;SDS011;50261;51.150;4.470;2023-02-01T01:36:00;21.98;;;6.15;;
56381;SDS011;50261;51.150;4.470;2023-02-01T01:38:26;34.28;;;6.10;;
56381;SDS011;50261;51.150;4.470;2023-02-01T01:40:52;21.20;;;5.20;;
56381;SDS011;50261;51.150;4.470;2023-02-01T01:43:19;19.35;;;5.28;;
56381;SDS011;50261;51.150;4.470;2023-02-01T01:45:49;22.10;;;6.07;;
56381;SDS011;50261;51.150;4.470;2023-02-01T01:48:26;20.23;;;5.63;;
56381;SDS011;50261;51.150;4.470;2023-02-01T01:50:57;23.63;;;4.97;;
56381;SDS011;50261;51.150;4.470;2023-02-01T01:53:26;20.45;;;4.97;;
56381;SDS011;50261;51.150;4.470;2023-02-01T01:55:52;21.02;;;5.72;;
56381;SDS011;50261;51.150;4.470;2023-02-01T01:58:19;16.02;;;4.90;;
56381;SDS011;50261;51.150;4.470;2023-02-01T02:00:46;15.80;;;5.03;;
56381;SDS011;50261;51.150;4.470;2023-02-01T02:05:41;27.55;;;5.32;;
56381;SDS011;50261;51.150;4.470;2023-02-01T02:08:08;20.52;;;4.75;;
56381;SDS011;50261;51.150;4.470;2023-02-01T02:10:33;18.50;;;5.20;;
56381;SDS011;50261;51.150;4.470;2023-02-01T02:13:18;26.65;;;5.60;;
56381;SDS011;50261;51.150;4.470;2023-02-01T02:18:31;19.23;;;4.10;;
56381;SDS011;50261;51.150;4.470;2023-02-01T02:29:03;25.55;;;5.38;;
56381;SDS011;50261;51.150;4.470;2023-02-01T02:34:28;19.38;;;4.72;;
56381;SDS011;50261;51.150;4.470;2023-02-01T02:42:29;16.20;;;3.55;;
56381;SDS011;50261;51.150;4.470;2023-02-01T02:50:37;19.13;;;4.43;;
56381;SDS011;50261;51.150;4.470;2023-02-01T02:53:27;17.33;;;4.53;;
56381;SDS011;50261;51.150;4.470;2023-02-01T02:56:14;22.42;;;4.72;;
56381;SDS011;50261;51.150;4.470;2023-02-01T02:58:59;19.48;;;4.03;;
56381;SDS011;50261;51.150;4.470;2023-02-01T03:01:43;21.13;;;4.38;;
56381;SDS011;50261;51.150;4.470;2023-02-01T03:04:28;19.65;;;3.85;;
56381;SDS011;50261;51.150;4.470;2023-02-01T03:06:54;17.45;;;3.70;;
56381;SDS011;50261;51.150;4.470;2023-02-01T03:09:30;19.50;;;3.88;;
56381;SDS011;50261;51.150;4.470;2023-02-01T03:11:59;21.75;;;3.70;;
56381;SDS011;50261;51.150;4.470;2023-02-01T03:14:45;16.80;;;2.67;;
56381;SDS011;50261;51.150;4.470;2023-02-01T03:17:13;18.17;;;3.40;;
56381;SDS011;50261;51.150;4.470;2023-02-01T03:19:40;18.13;;;3.60;;
56381;SDS011;50261;51.150;4.470;2023-02-01T03:22:12;18.45;;;3.53;;
56381;SDS011;50261;51.150;4.470;2023-02-01T03:24:47;20.95;;;4.00;;
56381;SDS011;50261;51.150;4.470;2023-02-01T03:27:20;19.80;;;3.50;;
56381;SDS011;50261;51.150;4.470;2023-02-01T03:30:11;16.08;;;3.45;;
56381;SDS011;50261;51.150;4.470;2023-02-01T03:32:36;24.58;;;4.05;;
56381;SDS011;50261;51.150;4.470;2023-02-01T03:35:20;14.30;;;2.40;;
56381;SDS011;50261;51.150;4.470;2023-02-01T03:37:49;15.38;;;2.92;;
56381;SDS011;50261;51.150;4.470;2023-02-01T03:40:15;11.73;;;1.90;;
56381;SDS011;50261;51.150;4.470;2023-02-01T03:42:45;9.57;;;3.45;;
56381;SDS011;50261;51.150;4.470;2023-02-01T03:45:17;17.88;;;4.28;;
56381;SDS011;50261;51.150;4.470;2023-02-01T03:47:47;18.42;;;3.53;;
56381;SDS011;50261;51.150;4.470;2023-02-01T03:50:15;13.25;;;3.45;;
56381;SDS011;50261;51.150;4.470;2023-02-01T03:55:14;21.98;;;3.58;;
56381;SDS011;50261;51.150;4.470;2023-02-01T03:57:44;13.50;;;3.33;;
56381;SDS011;50261;51.150;4.470;2023-02-01T04:00:22;15.75;;;3.78;;
56381;SDS011;50261;51.150;4.470;2023-02-01T04:02:49;17.70;;;3.92;;
56381;SDS011;50261;51.150;4.470;2023-02-01T04:05:15;20.20;;;3.97;;
56381;SDS011;50261;51.150;4.470;2023-02-01T04:07:50;12.50;;;3.33;;
56381;SDS011;50261;51.150;4.470;2023-02-01T04:10:15;22.85;;;4.93;;
56381;SDS011;50261;51.150;4.470;2023-02-01T04:12:41;25.05;;;3.90;;
56381;SDS011;50261;51.150;4.470;2023-02-01T04:15:07;22.17;;;3.95;;
56381;SDS011;50261;51.150;4.470;2023-02-01T04:17:33;20.90;;;4.90;;
56381;SDS011;50261;51.150;4.470;2023-02-01T04:19:58;23.20;;;5.25;;
56381;SDS011;50261;51.150;4.470;2023-02-01T04:22:24;21.10;;;4.55;;
56381;SDS011;50261;51.150;4.470;2023-02-01T04:24:50;14.90;;;3.58;;
56381;SDS011;50261;51.150;4.470;2023-02-01T04:27:16;18.63;;;3.80;;
56381;SDS011;50261;51.150;4.470;2023-02-01T04:29:41;13.55;;;2.92;;
56381;SDS011;50261;51.150;4.470;2023-02-01T04:32:07;19.65;;;4.18;;
56381;SDS011;50261;51.150;4.470;2023-02-01T04:34:33;12.93;;;2.83;;
56381;SDS011;50261;51.150;4.470;2023-02-01T04:36:58;21.67;;;4.55;;
56381;SDS011;50261;51.150;4.470;2023-02-01T04:39:24;22.00;;;5.20;;
56381;SDS011;50261;51.150;4.470;2023-02-01T04:41:50;16.50;;;3.80;;
56381;SDS011;50261;51.150;4.470;2023-02-01T04:44:16;20.10;;;3.65;;
56381;SDS011;50261;51.150;4.470;2023-02-01T04:46:42;14.38;;;3.25;;
56381;SDS011;50261;51.150;4.470;2023-02-01T04:49:11;6.82;;;1.33;;
56381;SDS011;50261;51.150;4.470;2023-02-01T04:51:37;22.77;;;4.10;;
56381;SDS011;50261;51.150;4.470;2023-02-01T04:54:03;23.30;;;5.22;;
56381;SDS011;50261;51.150;4.470;2023-02-01T04:56:30;23.08;;;3.22;;
56381;SDS011;50261;51.150;4.470;2023-02-01T04:58:55;25.95;;;4.63;;
56381;SDS011;50261;51.150;4.470;2023-02-01T05:01:21;15.65;;;3.17;;
56381;SDS011;50261;51.150;4.470;2023-02-01T05:03:47;19.15;;;3.95;;
56381;SDS011;50261;51.150;4.470;2023-02-01T05:06:13;21.45;;;3.47;;
56381;SDS011;50261;51.150;4.470;2023-02-01T05:08:39;18.52;;;4.40;;
56381;SDS011;50261;51.150;4.470;2023-02-01T05:11:05;17.48;;;3.60;;
56381;SDS011;50261;51.150;4.470;2023-02-01T05:13:31;23.83;;;3.95;;
56381;SDS011;50261;51.150;4.470;2023-02-01T05:16:15;21.27;;;3.50;;
56381;SDS011;50261;51.150;4.470;2023-02-01T05:18:41;23.33;;;4.78;;
56381;SDS011;50261;51.150;4.470;2023-02-01T05:21:07;20.35;;;3.88;;
56381;SDS011;50261;51.150;4.470;2023-02-01T05:23:33;16.23;;;3.28;;
56381;SDS011;50261;51.150;4.470;2023-02-01T05:26:18;21.13;;;3.42;;
56381;SDS011;50261;51.150;4.470;2023-02-01T05:28:44;23.17;;;4.10;;
56381;SDS011;50261;51.150;4.470;2023-02-01T05:31:10;17.27;;;3.78;;
56381;SDS011;50261;51.150;4.470;2023-02-01T05:33:36;26.77;;;4.43;;
56381;SDS011;50261;51.150;4.470;2023-02-01T05:36:01;17.55;;;3.97;;
56381;SDS011;50261;51.150;4.470;2023-02-01T05:38:27;22.38;;;4.40;;
56381;SDS011;50261;51.150;4.470;2023-02-01T05:40:55;16.90;;;3.47;;
56381;SDS011;50261;51.150;4.470;2023-02-01T05:43:21;19.42;;;3.25;;
56381;SDS011;50261;51.150;4.470;2023-02-01T05:45:46;14.48;;;3.65;;
56381;SDS011;50261;51.150;4.470;2023-02-01T05:48:12;18.63;;;4.05;;
56381;SDS011;50261;51.150;4.470;2023-02-01T05:50:38;18.88;;;4.25;;
56381;SDS011;50261;51.150;4.470;2023-02-01T05:53:07;25.45;;;4.05;;
56381;SDS011;50261;51.150;4.470;2023-02-01T05:55:33;19.10;;;3.83;;
56381;SDS011;50261;51.150;4.470;2023-02-01T05:57:59;21.33;;;3.75;;
56381;SDS011;50261;51.150;4.470;2023-02-01T06:00:25;25.88;;;4.35;;
56381;SDS011;50261;51.150;4.470;2023-02-01T06:02:50;10.80;;;2.63;;
56381;SDS011;50261;51.150;4.470;2023-02-01T06:05:16;12.18;;;3.22;;
56381;SDS011;50261;51.150;4.470;2023-02-01T06:07:42;23.73;;;4.15;;
56381;SDS011;50261;51.150;4.470;2023-02-01T06:10:08;21.08;;;3.65;;
56381;SDS011;50261;51.150;4.470;2023-02-01T06:12:37;18.65;;;3.88;;
56381;SDS011;50261;51.150;4.470;2023-02-01T06:15:03;19.10;;;4.07;;
56381;SDS011;50261;51.150;4.470;2023-02-01T06:17:29;25.63;;;4.22;;
56381;SDS011;50261;51.150;4.470;2023-02-01T06:19:55;10.93;;;2.05;;
56381;SDS011;50261;51.150;4.470;2023-02-01T06:22:20;22.45;;;3.78;;
56381;SDS011;50261;51.150;4.470;2023-02-01T06:24:47;6.57;;;1.92;;
56381;SDS011;50261;51.150;4.470;2023-02-01T06:27:14;17.92;;;3.28;;
56381;SDS011;50261;51.150;4.470;2023-02-01T06:29:40;19.48;;;3.28;;
56381;SDS011;50261;51.150;4.470;2023-02-01T06:32:05;18.30;;;3.65;;
56381;SDS011;50261;51.150;4.470;2023-02-01T06:34:31;20.92;;;4.05;;
56381;SDS011;50261;51.150;4.470;2023-02-01T06:36:57;29.92;;;4.00;;
56381;SDS011;50261;51.150;4.470;2023-02-01T06:39:22;22.08;;;3.08;;
56381;SDS011;50261;51.150;4.470;2023-02-01T06:41:48;21.05;;;3.88;;
56381;SDS011;50261;51.150;4.470;2023-02-01T06:44:14;13.63;;;3.28;;
56381;SDS011;50261;51.150;4.470;2023-02-01T06:46:40;21.45;;;4.10;;
56381;SDS011;50261;51.150;4.470;2023-02-01T06:49:06;19.17;;;4.07;;
56381;SDS011;50261;51.150;4.470;2023-02-01T06:51:31;19.90;;;4.70;;
56381;SDS011;50261;51.150;4.470;2023-02-01T06:53:57;28.95;;;4.00;;
56381;SDS011;50261;51.150;4.470;2023-02-01T06:56:23;10.50;;;2.35;;
56381;SDS011;50261;51.150;4.470;2023-02-01T06:58:49;19.98;;;4.20;;
56381;SDS011;50261;51.150;4.470;2023-02-01T07:01:15;16.52;;;3.67;;
56381;SDS011;50261;51.150;4.470;2023-02-01T07:03:41;23.67;;;4.57;;
56381;SDS011;50261;51.150;4.470;2023-02-01T07:06:06;19.40;;;5.00;;
56381;SDS011;50261;51.150;4.470;2023-02-01T07:08:33;15.23;;;3.45;;
56381;SDS011;50261;51.150;4.470;2023-02-01T07:11:03;17.45;;;4.45;;
56381;SDS011;50261;51.150;4.470;2023-02-01T07:13:28;24.73;;;4.40;;
56381;SDS011;50261;51.150;4.470;2023-02-01T07:15:57;13.20;;;2.70;;
56381;SDS011;50261;51.150;4.470;2023-02-01T07:18:22;23.83;;;4.20;;
56381;SDS011;50261;51.150;4.470;2023-02-01T07:20:51;19.55;;;3.55;;
56381;SDS011;50261;51.150;4.470;2023-02-01T07:23:16;23.17;;;3.95;;
56381;SDS011;50261;51.150;4.470;2023-02-01T07:25:42;22.88;;;5.10;;
56381;SDS011;50261;51.150;4.470;2023-02-01T07:28:08;13.40;;;2.90;;
56381;SDS011;50261;51.150;4.470;2023-02-01T07:30:33;25.50;;;4.25;;
56381;SDS011;50261;51.150;4.470;2023-02-01T07:32:59;20.60;;;4.50;;
56381;SDS011;50261;51.150;4.470;2023-02-01T07:35:27;23.48;;;4.40;;
56381;SDS011;50261;51.150;4.470;2023-02-01T07:37:52;15.55;;;3.47;;
56381;SDS011;50261;51.150;4.470;2023-02-01T07:40:17;17.95;;;3.63;;
56381;SDS011;50261;51.150;4.470;2023-02-01T07:42:43;16.60;;;3.15;;
56381;SDS011;50261;51.150;4.470;2023-02-01T07:45:09;24.23;;;4.40;;
56381;SDS011;50261;51.150;4.470;2023-02-01T07:47:35;17.08;;;3.10;;
56381;SDS011;50261;51.150;4.470;2023-02-01T07:50:00;25.10;;;3.50;;
56381;SDS011;50261;51.150;4.470;2023-02-01T07:52:29;17.05;;;4.35;;
56381;SDS011;50261;51.150;4.470;2023-02-01T07:54:54;15.88;;;3.83;;
56381;SDS011;50261;51.150;4.470;2023-02-01T07:57:20;6.75;;;2.33;;
56381;SDS011;50261;51.150;4.470;2023-02-01T07:59:45;16.23;;;3.35;;
56381;SDS011;50261;51.150;4.470;2023-02-01T08:02:37;10.02;;;2.50;;
56381;SDS011;50261;51.150;4.470;2023-02-01T08:05:03;21.48;;;4.05;;
56381;SDS011;50261;51.150;4.470;2023-02-01T08:07:30;27.65;;;5.10;;
56381;SDS011;50261;51.150;4.470;2023-02-01T08:09:55;15.38;;;3.90;;
56381;SDS011;50261;51.150;4.470;2023-02-01T08:12:20;18.55;;;3.92;;
56381;SDS011;50261;51.150;4.470;2023-02-01T08:14:46;26.15;;;4.50;;
56381;SDS011;50261;51.150;4.470;2023-02-01T08:17:11;20.10;;;4.13;;
56381;SDS011;50261;51.150;4.470;2023-02-01T08:19:37;24.30;;;4.20;;
56381;SDS011;50261;51.150;4.470;2023-02-01T08:22:02;19.80;;;4.40;;
56381;SDS011;50261;51.150;4.470;2023-02-01T08:24:32;26.85;;;5.43;;
56381;SDS011;50261;51.150;4.470;2023-02-01T08:26:57;18.75;;;3.47;;
56381;SDS011;50261;51.150;4.470;2023-02-01T08:29:23;17.60;;;3.95;;
56381;SDS011;50261;51.150;4.470;2023-02-01T08:31:48;20.05;;;4.43;;
56381;SDS011;50261;51.150;4.470;2023-02-01T08:34:14;17.92;;;4.57;;
56381;SDS011;50261;51.150;4.470;2023-02-01T08:36:39;18.67;;;3.67;;
56381;SDS011;50261;51.150;4.470;2023-02-01T08:39:06;22.88;;;4.18;;
56381;SDS011;50261;51.150;4.470;2023-02-01T08:41:34;9.43;;;2.63;;
56381;SDS011;50261;51.150;4.470;2023-02-01T08:44:00;18.77;;;4.22;;
56381;SDS011;50261;51.150;4.470;2023-02-01T08:46:26;21.60;;;4.45;;
56381;SDS011;50261;51.150;4.470;2023-02-01T08:48:52;12.70;;;2.72;;
56381;SDS011;50261;51.150;4.470;2023-02-01T08:51:18;17.85;;;3.65;;
56381;SDS011;50261;51.150;4.470;2023-02-01T08:53:44;12.45;;;3.63;;
56381;SDS011;50261;51.150;4.470;2023-02-01T08:56:10;22.27;;;4.47;;
56381;SDS011;50261;51.150;4.470;2023-02-01T08:58:36;19.50;;;4.03;;
56381;SDS011;50261;51.150;4.470;2023-02-01T09:01:03;18.25;;;4.15;;
56381;SDS011;50261;51.150;4.470;2023-02-01T09:03:28;23.45;;;5.18;;
56381;SDS011;50261;51.150;4.470;2023-02-01T09:05:59;13.02;;;2.60;;
56381;SDS011;50261;51.150;4.470;2023-02-01T09:08:24;19.05;;;4.28;;
56381;SDS011;50261;51.150;4.470;2023-02-01T09:10:50;13.15;;;2.85;;
56381;SDS011;50261;51.150;4.470;2023-02-01T09:13:15;12.93;;;2.58;;
56381;SDS011;50261;51.150;4.470;2023-02-01T09:15:41;21.05;;;3.78;;
56381;SDS011;50261;51.150;4.470;2023-02-01T09:18:07;16.00;;;3.25;;
56381;SDS011;50261;51.150;4.470;2023-02-01T09:20:32;23.08;;;4.43;;
56381;SDS011;50261;51.150;4.470;2023-02-01T09:22:57;20.60;;;4.63;;
56381;SDS011;50261;51.150;4.470;2023-02-01T09:25:23;16.73;;;3.42;;
56381;SDS011;50261;51.150;4.470;2023-02-01T09:27:48;24.63;;;4.93;;
56381;SDS011;50261;51.150;4.470;2023-02-01T09:30:14;22.92;;;5.05;;
56381;SDS011;50261;51.150;4.470;2023-02-01T09:32:39;13.32;;;3.17;;
56381;SDS011;50261;51.150;4.470;2023-02-01T09:35:05;19.90;;;5.15;;
56381;SDS011;50261;51.150;4.470;2023-02-01T09:37:31;17.15;;;4.07;;
56381;SDS011;50261;51.150;4.470;2023-02-01T09:39:56;18.05;;;3.78;;
56381;SDS011;50261;51.150;4.470;2023-02-01T09:45:06;21.60;;;3.97;;
56381;SDS011;50261;51.150;4.470;2023-02-01T09:47:34;18.42;;;3.78;;
56381;SDS011;50261;51.150;4.470;2023-02-01T09:52:28;17.45;;;4.50;;
56381;SDS011;50261;51.150;4.470;2023-02-01T09:54:58;18.23;;;3.80;;
56381;SDS011;50261;51.150;4.470;2023-02-01T09:57:31;19.77;;;3.30;;
56381;SDS011;50261;51.150;4.470;2023-02-01T10:00:03;23.63;;;3.55;;
56381;SDS011;50261;51.150;4.470;2023-02-01T10:02:37;23.05;;;4.43;;
56381;SDS011;50261;51.150;4.470;2023-02-01T10:05:04;13.27;;;2.33;;
56381;SDS011;50261;51.150;4.470;2023-02-01T10:08:04;18.27;;;2.92;;
56381;SDS011;50261;51.150;4.470;2023-02-01T10:10:24;14.70;;;2.67;;
56381;SDS011;50261;51.150;4.470;2023-02-01T10:18:30;13.13;;;3.28;;
56381;SDS011;50261;51.150;4.470;2023-02-01T10:23:42;18.08;;;4.10;;
56381;SDS011;50261;51.150;4.470;2023-02-01T10:28:34;16.60;;;3.75;;
56381;SDS011;50261;51.150;4.470;2023-02-01T10:31:02;14.65;;;3.00;;
56381;SDS011;50261;51.150;4.470;2023-02-01T10:36:25;12.55;;;3.15;;
56381;SDS011;50261;51.150;4.470;2023-02-01T10:38:52;14.88;;;3.30;;
56381;SDS011;50261;51.150;4.470;2023-02-01T10:41:19;12.40;;;3.03;;
56381;SDS011;50261;51.150;4.470;2023-02-01T10:43:46;12.52;;;3.55;;
56381;SDS011;50261;51.150;4.470;2023-02-01T10:46:13;12.63;;;3.47;;
56381;SDS011;50261;51.150;4.470;2023-02-01T10:48:38;13.63;;;3.40;;
56381;SDS011;50261;51.150;4.470;2023-02-01T10:51:07;10.63;;;2.88;;
56381;SDS011;50261;51.150;4.470;2023-02-01T10:53:41;13.27;;;3.05;;
56381;SDS011;50261;51.150;4.470;2023-02-01T10:56:08;12.70;;;3.53;;
56381;SDS011;50261;51.150;4.470;2023-02-01T10:58:35;19.50;;;3.53;;
56381;SDS011;50261;51.150;4.470;2023-02-01T11:01:03;13.98;;;2.50;;
56381;SDS011;50261;51.150;4.470;2023-02-01T11:03:39;13.30;;;4.43;;
56381;SDS011;50261;51.150;4.470;2023-02-01T11:08:48;11.27;;;3.22;;
56381;SDS011;50261;51.150;4.470;2023-02-01T11:11:14;10.88;;;3.70;;
56381;SDS011;50261;51.150;4.470;2023-02-01T11:13:39;11.18;;;2.17;;
56381;SDS011;50261;51.150;4.470;2023-02-01T11:16:06;9.75;;;2.85;;
56381;SDS011;50261;51.150;4.470;2023-02-01T11:18:34;12.73;;;3.50;;
56381;SDS011;50261;51.150;4.470;2023-02-01T11:21:01;10.57;;;2.63;;
56381;SDS011;50261;51.150;4.470;2023-02-01T11:23:27;15.07;;;2.55;;
56381;SDS011;50261;51.150;4.470;2023-02-01T11:25:55;15.00;;;2.70;;
56381;SDS011;50261;51.150;4.470;2023-02-01T11:28:22;13.20;;;2.42;;
56381;SDS011;50261;51.150;4.470;2023-02-01T11:30:49;7.55;;;2.03;;
56381;SDS011;50261;51.150;4.470;2023-02-01T11:33:19;15.30;;;2.92;;
56381;SDS011;50261;51.150;4.470;2023-02-01T11:35:47;4.50;;;1.42;;
56381;SDS011;50261;51.150;4.470;2023-02-01T11:38:21;20.48;;;3.50;;
56381;SDS011;50261;51.150;4.470;2023-02-01T11:40:47;17.38;;;2.65;;
56381;SDS011;50261;51.150;4.470;2023-02-01T11:43:19;13.75;;;2.90;;
56381;SDS011;50261;51.150;4.470;2023-02-01T11:45:58;15.35;;;2.22;;
56381;SDS011;50261;51.150;4.470;2023-02-01T11:48:25;15.52;;;2.95;;
56381;SDS011;50261;51.150;4.470;2023-02-01T11:51:26;16.95;;;3.20;;
56381;SDS011;50261;51.150;4.470;2023-02-01T11:56:23;10.38;;;2.50;;
56381;SDS011;50261;51.150;4.470;2023-02-01T11:59:05;18.25;;;3.00;;
56381;SDS011;50261;51.150;4.470;2023-02-01T12:01:39;12.07;;;2.17;;
56381;SDS011;50261;51.150;4.470;2023-02-01T12:20:17;9.57;;;2.65;;
56381;SDS011;50261;51.150;4.470;2023-02-01T12:25:24;14.20;;;2.35;;
56381;SDS011;50261;51.150;4.470;2023-02-01T12:43:20;11.25;;;2.22;;
56381;SDS011;50261;51.150;4.470;2023-02-01T12:46:04;10.93;;;2.65;;
56381;SDS011;50261;51.150;4.470;2023-02-01T12:48:33;9.52;;;2.20;;
56381;SDS011;50261;51.150;4.470;2023-02-01T12:51:01;12.95;;;2.05;;
56381;SDS011;50261;51.150;4.470;2023-02-01T12:56:19;9.15;;;1.98;;
56381;SDS011;50261;51.150;4.470;2023-02-01T12:58:47;7.97;;;1.65;;
56381;SDS011;50261;51.150;4.470;2023-02-01T13:06:25;14.30;;;2.30;;
56381;SDS011;50261;51.150;4.470;2023-02-01T13:11:34;10.40;;;2.35;;
56381;SDS011;50261;51.150;4.470;2023-02-01T13:14:02;11.80;;;2.40;;
56381;SDS011;50261;51.150;4.470;2023-02-01T13:21:37;12.43;;;2.22;;
56381;SDS011;50261;51.150;4.470;2023-02-01T13:24:04;14.65;;;2.80;;
56381;SDS011;50261;51.150;4.470;2023-02-01T13:26:29;9.02;;;2.08;;
56381;SDS011;50261;51.150;4.470;2023-02-01T13:31:34;14.20;;;2.10;;
56381;SDS011;50261;51.150;4.470;2023-02-01T13:36:47;15.50;;;2.72;;
56381;SDS011;50261;51.150;4.470;2023-02-01T13:44:24;10.38;;;2.17;;
56381;SDS011;50261;51.150;4.470;2023-02-01T13:46:51;11.73;;;2.85;;
56381;SDS011;50261;51.150;4.470;2023-02-01T13:49:20;14.48;;;3.03;;
56381;SDS011;50261;51.150;4.470;2023-02-01T13:51:48;11.73;;;2.58;;
56381;SDS011;50261;51.150;4.470;2023-02-01T13:54:24;14.55;;;2.63;;
56381;SDS011;50261;51.150;4.470;2023-02-01T13:56:50;18.67;;;2.13;;
56381;SDS011;50261;51.150;4.470;2023-02-01T14:02:35;16.20;;;2.63;;
56381;SDS011;50261;51.150;4.470;2023-02-01T14:04:47;16.42;;;2.42;;
56381;SDS011;50261;51.150;4.470;2023-02-01T14:07:17;12.63;;;2.58;;
56381;SDS011;50261;51.150;4.470;2023-02-01T14:09:43;11.98;;;2.92;;
56381;SDS011;50261;51.150;4.470;2023-02-01T14:14:52;13.80;;;2.45;;
56381;SDS011;50261;51.150;4.470;2023-02-01T14:17:38;10.32;;;2.15;;
56381;SDS011;50261;51.150;4.470;2023-02-01T14:22:48;14.05;;;2.58;;
56381;SDS011;50261;51.150;4.470;2023-02-01T14:25:17;15.70;;;3.00;;
56381;SDS011;50261;51.150;4.470;2023-02-01T14:27:43;8.65;;;2.03;;
56381;SDS011;50261;51.150;4.470;2023-02-01T14:30:14;13.05;;;2.80;;
56381;SDS011;50261;51.150;4.470;2023-02-01T14:32:40;15.95;;;2.95;;
56381;SDS011;50261;51.150;4.470;2023-02-01T14:35:08;17.08;;;3.55;;
56381;SDS011;50261;51.150;4.470;2023-02-01T14:37:41;16.92;;;2.95;;
56381;SDS011;50261;51.150;4.470;2023-02-01T14:47:47;17.60;;;2.70;;
56381;SDS011;50261;51.150;4.470;2023-02-01T14:52:42;13.85;;;2.35;;
56381;SDS011;50261;51.150;4.470;2023-02-01T14:55:36;12.18;;;2.88;;
56381;SDS011;50261;51.150;4.470;2023-02-01T15:00:50;16.95;;;2.40;;
56381;SDS011;50261;51.150;4.470;2023-02-01T15:05:50;14.07;;;3.05;;
56381;SDS011;50261;51.150;4.470;2023-02-01T15:08:21;17.35;;;2.95;;
56381;SDS011;50261;51.150;4.470;2023-02-01T15:10:49;13.02;;;2.60;;
56381;SDS011;50261;51.150;4.470;2023-02-01T15:13:20;15.57;;;2.67;;
56381;SDS011;50261;51.150;4.470;2023-02-01T15:15:59;17.85;;;3.28;;
56381;SDS011;50261;51.150;4.470;2023-02-01T15:18:24;11.45;;;2.45;;
56381;SDS011;50261;51.150;4.470;2023-02-01T15:20:56;12.48;;;2.75;;
56381;SDS011;50261;51.150;4.470;2023-02-01T15:23:21;14.45;;;3.72;;
56381;SDS011;50261;51.150;4.470;2023-02-01T15:25:48;18.08;;;2.83;;
56381;SDS011;50261;51.150;4.470;2023-02-01T15:28:14;15.65;;;3.28;;
56381;SDS011;50261;51.150;4.470;2023-02-01T15:30:50;17.40;;;3.05;;
56381;SDS011;50261;51.150;4.470;2023-02-01T15:33:17;17.27;;;3.92;;
56381;SDS011;50261;51.150;4.470;2023-02-01T15:35:45;19.25;;;3.15;;
56381;SDS011;50261;51.150;4.470;2023-02-01T15:38:45;18.45;;;3.85;;
56381;SDS011;50261;51.150;4.470;2023-02-01T15:41:04;18.45;;;3.20;;
56381;SDS011;50261;51.150;4.470;2023-02-01T15:43:32;12.30;;;3.08;;
56381;SDS011;50261;51.150;4.470;2023-02-01T15:45:58;17.23;;;3.83;;
56381;SDS011;50261;51.150;4.470;2023-02-01T15:48:26;14.02;;;3.55;;
56381;SDS011;50261;51.150;4.470;2023-02-01T15:50:53;19.67;;;3.55;;
56381;SDS011;50261;51.150;4.470;2023-02-01T15:53:21;13.45;;;3.72;;
56381;SDS011;50261;51.150;4.470;2023-02-01T15:55:51;15.55;;;3.15;;
56381;SDS011;50261;51.150;4.470;2023-02-01T15:58:21;23.17;;;3.45;;
56381;SDS011;50261;51.150;4.470;2023-02-01T16:00:48;19.17;;;3.42;;
56381;SDS011;50261;51.150;4.470;2023-02-01T16:05:57;15.43;;;2.63;;
56381;SDS011;50261;51.150;4.470;2023-02-01T16:08:24;19.63;;;3.78;;
56381;SDS011;50261;51.150;4.470;2023-02-01T16:10:51;17.20;;;3.20;;
56381;SDS011;50261;51.150;4.470;2023-02-01T16:13:18;18.45;;;3.67;;
56381;SDS011;50261;51.150;4.470;2023-02-01T16:15:44;13.80;;;2.78;;
56381;SDS011;50261;51.150;4.470;2023-02-01T16:18:10;6.28;;;1.42;;
56381;SDS011;50261;51.150;4.470;2023-02-01T16:20:37;19.02;;;4.43;;
56381;SDS011;50261;51.150;4.470;2023-02-01T16:23:02;18.80;;;3.92;;
56381;SDS011;50261;51.150;4.470;2023-02-01T16:25:28;13.77;;;3.47;;
56381;SDS011;50261;51.150;4.470;2023-02-01T16:27:53;19.52;;;3.92;;
56381;SDS011;50261;51.150;4.470;2023-02-01T16:30:19;21.08;;;4.60;;
56381;SDS011;50261;51.150;4.470;2023-02-01T16:32:54;16.25;;;4.05;;
56381;SDS011;50261;51.150;4.470;2023-02-01T16:35:39;18.88;;;3.45;;
56381;SDS011;50261;51.150;4.470;2023-02-01T16:38:09;23.63;;;3.03;;
56381;SDS011;50261;51.150;4.470;2023-02-01T16:40:38;16.58;;;3.47;;
56381;SDS011;50261;51.150;4.470;2023-02-01T16:43:16;20.85;;;3.92;;
56381;SDS011;50261;51.150;4.470;2023-02-01T16:45:43;14.82;;;3.03;;
56381;SDS011;50261;51.150;4.470;2023-02-01T16:48:16;15.18;;;3.35;;
56381;SDS011;50261;51.150;4.470;2023-02-01T16:50:43;14.65;;;3.67;;
56381;SDS011;50261;51.150;4.470;2023-02-01T16:53:11;21.60;;;4.65;;
56381;SDS011;50261;51.150;4.470;2023-02-01T16:55:38;15.15;;;2.35;;
56381;SDS011;50261;51.150;4.470;2023-02-01T16:58:03;18.67;;;3.45;;
56381;SDS011;50261;51.150;4.470;2023-02-01T17:00:29;20.38;;;4.03;;
56381;SDS011;50261;51.150;4.470;2023-02-01T17:02:56;20.35;;;4.07;;